Flight Track Log - Related Links

Times and Time Zones

All times are in EDT time to prevent confusion due to time zone crossing. See the EJM19 flight status page for this flight to view local times or setup timezone preferences in your user account.

Time Position Orientation Groundspeed Altitude Reporting Facility
EDT Latitude Longitude Course Direction KTS MPH feet Rate Location/Type
Tue 09:38:20 AM 40.8000 -74.0667 237° Southwest 209 241 1,800  Level New York TRACON
Tue 09:39:20 AM 40.7667 -74.1333 237° Southwest 242 278 3,500 1,900 Climbing New York TRACON
Tue 09:40:20 AM 40.7000 -74.1667 201° Southwest 247 284 5,600 1,250 Climbing New York TRACON
Tue 09:41:20 AM 40.6333 -74.2167 210° Southwest 273 314 6,000 200 Climbing New York TRACON
Tue 09:42:20 AM 40.5833 -74.2500 207° Southwest 256 295 6,000  Level New York TRACON
Tue 09:44:04 AM 40.4628 -74.2353 175° South 250 288 6,000  Level New York Center
Tue 09:45:06 AM 40.3950 -74.2019 159° South 262 302 6,000 1,059 Level New York Center
Tue 09:46:03 AM 40.3189 -74.1736 164° South 274 315 8,100 2,564 Climbing New York Center
Tue 09:47:03 AM 40.2519 -74.1811 185° South 274 315 11,000 2,479 Climbing New York Center
Tue 09:48:04 AM 40.1594 -74.2067 192° South 302 348 13,100 2,281 Climbing New York Center
Tue 09:49:04 AM 40.0669 -74.2372 194° South 332 382 15,600 2,331 Climbing New York Center
Tue 09:50:05 AM 39.9958 -74.3094 218° Southwest 335 386 17,800 1,770 Climbing New York Center
Tue 09:51:06 AM 39.9550 -74.4211 245° Southwest 336 387 19,200 1,220 Climbing New York Center
Tue 09:52:03 AM 39.9094 -74.5433 244° Southwest 364 419 20,200 946 Climbing New York Center
Tue 09:54:10 AM 39.7875 -74.7436 232° Southwest 348 400 22,100 1,085 Climbing Washington Center
Tue 09:55:11 AM 39.6881 -74.8231 212° Southwest 368 423 23,600 1,438 Climbing Washington Center
Tue 09:56:11 AM 39.6072 -74.8806 209° Southwest 380 437 25,000 1,424 Climbing Washington Center
Tue 09:57:09 AM 39.5200 -74.9458 210° Southwest 375 432 26,400 1,322 Climbing Washington Center
Tue 09:58:09 AM 39.4392 -74.9978 206° Southwest 354 407 27,600 1,180 Climbing Washington Center
Tue 09:59:11 AM 39.3581 -75.0467 205° Southwest 335 386 28,800 1,200 Climbing Washington Center
Tue 10:00:09 AM 39.2750 -75.0983 206° Southwest 330 380 30,000 1,210 Climbing Washington Center
Tue 10:01:10 AM 39.1875 -75.1525 206° Southwest 340 391 31,200 1,180 Climbing Washington Center
Tue 10:02:11 AM 39.0961 -75.2064 205° Southwest 352 405 32,400 1,289 Climbing Washington Center
Tue 10:03:11 AM 39.0067 -75.2603 205° Southwest 358 412 33,800 1,424 Climbing Washington Center
Tue 10:04:09 AM 38.9150 -75.3142 205° Southwest 363 418 35,200 1,475 Climbing Washington Center
Tue 10:05:09 AM 38.8275 -75.3678 206° Southwest 363 418 36,700 1,339 Climbing Washington Center
Tue 10:06:10 AM 38.7381 -75.4186 204° Southwest 358 412 37,900 645 Climbing Washington Center
Tue 10:07:10 AM 38.6506 -75.4747 207° Southwest 358 412 38,000 50 Climbing Washington Center
Tue 10:08:11 AM 38.5547 -75.5306 204° Southwest 369 425 38,000  Level Washington Center
Tue 10:09:11 AM 38.4547 -75.5892 205° Southwest 382 440 38,000  Level Washington Center
Tue 10:10:09 AM 38.3525 -75.6472 204° Southwest 393 452 38,000 458 Level Washington Center
Tue 10:11:09 AM 38.2461 -75.7081 204° Southwest 405 466 38,900 942 Climbing Washington Center
Tue 10:12:10 AM 38.1481 -75.7661 205° Southwest 405 466 39,900 545 Climbing Washington Center
Tue 10:13:10 AM 38.0458 -75.8264 205° Southwest 399 459 40,000 50 Climbing Washington Center
Tue 10:14:10 AM 37.9456 -75.8842 204° Southwest 399 459 40,000  Level Washington Center
Tue 10:15:11 AM 37.8411 -75.9442 204° Southwest 405 466 40,000 153 Level Washington Center
Tue 10:16:08 AM 37.7428 -76.0119 209° Southwest 405 466 40,300 508 Climbing Washington Center
Tue 10:17:09 AM 37.6425 -76.0692 204° Southwest 405 466 41,000 344 Climbing Washington Center
Tue 10:18:10 AM 37.5422 -76.1261 204° Southwest 405 466 41,000  Level Washington Center
Tue 10:19:11 AM 37.4356 -76.1803 202° Southwest 405 466 41,000  Level Washington Center
Tue 10:20:10 AM 37.3331 -76.2369 204° Southwest 405 466 41,000 252 Level Washington Center
Tue 10:21:10 AM 37.2306 -76.2961 205° Southwest 405 466 41,500 595 Climbing Washington Center
Tue 10:22:11 AM 37.1300 -76.3525 204° Southwest 399 459 42,200 655 Climbing Washington Center
Tue 10:23:09 AM 37.0336 -76.4061 204° Southwest 399 459 42,800 407 Climbing Washington Center
Tue 10:24:09 AM 36.9353 -76.4625 205° Southwest 394 453 43,000 99 Climbing Washington Center
Tue 10:25:10 AM 36.8389 -76.5158 204° Southwest 389 448 43,000  Level Washington Center
Tue 10:26:11 AM 36.7403 -76.5742 205° Southwest 384 442 43,000  Level Washington Center
Tue 10:27:09 AM 36.6314 -76.6403 206° Southwest 384 442 43,000  Level Washington Center
Tue 10:28:10 AM 36.5328 -76.6983 205° Southwest 384 442 43,000  Level Washington Center
Tue 10:29:10 AM 36.4322 -76.7511 203° Southwest 390 449 43,000  Level Washington Center
Tue 10:30:11 AM 36.3314 -76.8039 203° Southwest 395 455 43,000  Level Washington Center
Tue 10:31:12 AM 36.2308 -76.8589 204° Southwest 400 460 43,000  Level Washington Center
Tue 10:32:10 AM 36.1300 -76.9139 204° Southwest 400 460 43,000  Level Washington Center
Tue 10:33:11 AM 36.0314 -76.9686 204° Southwest 395 455 43,000  Level Washington Center
Tue 10:34:11 AM 35.9286 -77.0053 196° South 395 455 43,000  Level Washington Center
Tue 10:35:09 AM 35.8217 -77.0469 198° South 390 449 43,000  Level Washington Center
Tue 10:36:10 AM 35.7211 -77.0836 196° South 390 449 43,000  Level Washington Center
Tue 10:37:11 AM 35.6225 -77.1253 199° South 384 442 43,000  Level Washington Center
Tue 10:38:11 AM 35.5178 -77.1639 197° South 384 442 43,000  Level Washington Center
Tue 10:39:09 AM 35.4128 -77.2028 197° South 389 448 43,000  Level Washington Center
Tue 10:40:10 AM 35.3081 -77.2439 198° South 389 448 43,000  Level Washington Center
Tue 10:41:11 AM 35.2031 -77.2825 197° South 394 453 43,000  Level Washington Center
Tue 10:42:11 AM 35.1003 -77.3233 198° South 394 453 43,000  Level Washington Center
Tue 10:43:09 AM 34.9933 -77.3617 196° South 394 453 43,000  Level Washington Center
Tue 10:44:09 AM 34.8883 -77.4000 197° South 399 459 43,000  Level Washington Center
Tue 10:45:09 AM 34.7981 -77.4408 200° South 399 459 43,000  Level Washington Center
Tue 10:46:10 AM 34.6931 -77.4789 197° South 399 459 43,000  Level Washington Center
Tue 10:47:11 AM 34.5861 -77.5194 197° South 399 459 43,000  Level Washington Center
Tue 10:48:11 AM 34.4811 -77.5572 197° South 399 459 43,000  Level Washington Center
Tue 10:49:09 AM 34.3742 -77.5975 197° South 399 459 43,000  Level Washington Center
Tue 10:50:09 AM 34.2692 -77.6325 195° South 404 465 43,000  Level Washington Center
Tue 10:52:52 AM 33.9772 -77.7392 197° South 419 482 43,000  Level Jacksonville Center
Tue 10:53:52 AM 33.8581 -77.7836 197° South 411 473 43,000  Level Jacksonville Center
Tue 10:54:52 AM 33.7533 -77.8244 198° South 406 467 43,000  Level Jacksonville Center
Tue 10:55:52 AM 33.6442 -77.8608 196° South 401 461 43,000  Level Jacksonville Center
Tue 10:56:52 AM 33.5394 -77.9017 198° South 401 461 43,000  Level Jacksonville Center
Tue 10:57:52 AM 33.4325 -77.9400 197° South 401 461 43,000  Level Jacksonville Center
Tue 10:58:52 AM 33.3256 -77.9808 198° South 401 461 43,000  Level Jacksonville Center
Tue 10:59:51 AM 33.2189 -78.0264 200° South 401 461 43,000  Level Jacksonville Center
Tue 11:00:51 AM 33.1139 -78.0667 198° South 401 461 43,000  Level Jacksonville Center
Tue 11:01:52 AM 33.0069 -78.1072 198° South 401 461 43,000  Level Jacksonville Center
Tue 11:02:51 AM 32.9000 -78.1500 199° South 401 461 43,000  Level Jacksonville Center
Tue 11:03:51 AM 32.7950 -78.1900 198° South 401 461 43,000  Level Jacksonville Center
Tue 11:04:51 AM 32.6881 -78.2328 199° South 401 461 43,000  Level Jacksonville Center
Tue 11:05:51 AM 32.5811 -78.2728 197° South 401 461 43,000  Level Jacksonville Center
Tue 11:06:51 AM 32.4742 -78.3150 198° South 401 461 43,000  Level Jacksonville Center
Tue 11:07:51 AM 32.3672 -78.3572 198° South 401 461 43,000  Level Jacksonville Center
Tue 11:08:51 AM 32.2603 -78.4019 199° South 401 461 43,000  Level Jacksonville Center
Tue 11:09:51 AM 32.1511 -78.4442 198° South 406 467 43,000  Level Jacksonville Center
Tue 11:10:51 AM 32.0439 -78.4836 197° South 406 467 43,000  Level Jacksonville Center
Tue 11:11:51 AM 31.9369 -78.5278 199° South 406 467 43,000  Level Jacksonville Center
Tue 11:12:51 AM 31.8275 -78.5672 197° South 412 474 43,000  Level Jacksonville Center
Tue 11:13:51 AM 31.7225 -78.6064 198° South 412 474 43,000  Level Jacksonville Center
Tue 11:14:51 AM 31.6092 -78.6506 198° South 412 474 43,000  Level Jacksonville Center
Tue 11:15:51 AM 31.5019 -78.6897 197° South 403 464 43,000  Level Jacksonville Center
Tue 11:16:51 AM 31.3906 -78.7336 199° South 417 480 43,000  Level Jacksonville Center
Tue 11:17:51 AM 31.2814 -78.7750 198° South 416 479 43,000  Level Jacksonville Center
Tue 11:18:51 AM 31.1700 -78.8186 199° South 421 484 43,000  Level Jacksonville Center
Tue 11:19:51 AM 31.0603 -78.8475 193° South 421 484 43,000  Level Jacksonville Center
Tue 11:20:51 AM 30.9700 -78.8928 203° Southwest 416 479 43,000  Level Jacksonville Center
Tue 11:21:51 AM 30.8586 -78.9361 198° South 411 473 43,000  Level Jacksonville Center
Tue 11:22:51 AM 30.7533 -78.9744 197° South 416 479 43,000  Level Jacksonville Center
Tue 11:23:51 AM 30.6439 -79.0175 199° South 421 484 43,000  Level Jacksonville Center
Tue 11:24:51 AM 30.5261 -79.0583 197° South 421 484 43,000  Level Jacksonville Center
Tue 11:25:27 AM 30.4611 -79.0811 197° South 424 488 43,000  Level Miami Center
Tue 11:26:27 AM 30.3561 -79.1197 198° South 415 478 43,000  Level Miami Center
Tue 11:27:27 AM 30.2450 -79.1631 199° South 415 478 43,000  Level Miami Center
Tue 11:28:27 AM 30.1278 -79.2014 196° South 427 491 43,000  Level Miami Center
Tue 11:29:27 AM 30.0186 -79.2444 199° South 427 491 43,000  Level Miami Center
Tue 11:30:27 AM 29.9136 -79.2875 200° South 421 484 43,000  Level Miami Center
Tue 11:31:27 AM 29.8044 -79.3331 200° South 421 484 43,000  Level Miami Center
Tue 11:32:27 AM 29.6933 -79.3711 197° South 421 484 43,000  Level Miami Center
Tue 11:33:27 AM 29.5800 -79.4089 196° South 421 484 43,000  Level Miami Center
Tue 11:34:27 AM 29.4728 -79.4542 200° South 426 490 43,000  Level Miami Center
Tue 11:35:27 AM 29.3575 -79.4894 195° South 426 490 43,000  Level Miami Center
Tue 11:36:27 AM 29.2461 -79.5272 196° South 426 490 43,000  Level Miami Center
Tue 11:37:27 AM 29.1347 -79.5697 198° South 426 490 43,000  Level Miami Center
Tue 11:38:27 AM 29.0233 -79.6097 197° South 426 490 43,000  Level Miami Center
Tue 11:39:27 AM 28.9164 -79.6472 197° South 426 490 43,000  Level Miami Center
Tue 11:40:27 AM 28.8050 -79.6872 197° South 421 484 43,000  Level Miami Center
Tue 11:41:27 AM 28.6936 -79.7269 197° South 421 484 43,000  Level Miami Center
Tue 11:42:27 AM 28.5842 -79.7667 198° South 426 490 43,000  Level Miami Center
Tue 11:43:27 AM 28.4769 -79.8039 197° South 426 490 43,000  Level Miami Center
Tue 11:44:27 AM 28.3656 -79.8436 197° South 426 490 43,000  Level Miami Center
Tue 11:45:27 AM 28.2564 -79.8831 198° South 426 490 43,000  Level Miami Center
Tue 11:46:27 AM 28.1344 -79.9244 197° South 426 490 43,000  Level Miami Center
Tue 11:47:27 AM 28.0356 -79.9619 199° South 426 490 43,000  Level Miami Center
Tue 11:48:27 AM 27.9239 -79.9989 196° South 426 490 43,000  Level Miami Center
Tue 11:49:27 AM 27.8106 -80.0356 196° South 432 497 43,000  Level Miami Center
Tue 11:50:27 AM 27.6989 -80.0747 197° South 427 491 43,000  Level Miami Center
Tue 11:51:27 AM 27.5875 -80.1136 197° South 422 486 43,000  Level Miami Center
Tue 11:52:27 AM 27.4758 -80.1528 197° South 422 486 43,000  Level Miami Center
Tue 11:53:27 AM 27.3664 -80.1939 198° South 427 491 43,000  Level Miami Center
Tue 11:54:27 AM 27.2547 -80.2328 197° South 427 491 43,000  Level Miami Center
Tue 11:55:27 AM 27.1328 -80.2758 197° South 427 491 43,000  Level Miami Center
Tue 11:56:27 AM 27.0250 -80.3242 202° Southwest 427 491 43,000 200 Level Miami Center
Tue 11:57:27 AM 26.9314 -80.3981 215° Southwest 421 484 43,400 600 Climbing Miami Center
Tue 11:58:27 AM 26.8400 -80.4653 213° Southwest 416 479 44,200 700 Climbing Miami Center
Tue 11:59:27 AM 26.7506 -80.5322 214° Southwest 402 463 44,800 400 Climbing Miami Center
Tue 12:00:27 PM 26.6717 -80.5950 215° Southwest 395 455 45,000 100 Climbing Miami Center
Tue 12:01:27 PM 26.5678 -80.6611 210° Southwest 395 455 45,000  Level Miami Center
Tue 12:02:27 PM 26.4728 -80.6906 196° South 395 455 45,000  Level Miami Center
Tue 12:03:27 PM 26.3531 -80.7192 192° South 400 460 45,000  Level Miami Center
Tue 12:04:27 PM 26.2522 -80.7436 192° South 405 466 45,000  Level Miami Center
Tue 12:05:27 PM 26.1325 -80.7700 191° South 405 466 45,000  Level Miami Center
Tue 12:06:27 PM 26.0211 -80.7986 193° South 410 472 45,000  Level Miami Center
Tue 12:07:27 PM 25.9056 -80.8247 191° South 415 478 45,000  Level Miami Center
Tue 12:08:27 PM 25.7900 -80.8511 192° South 420 483 45,000  Level Miami Center
Tue 12:09:27 PM 25.6742 -80.8794 192° South 420 483 45,000  Level Miami Center
Tue 12:10:27 PM 25.5608 -80.9056 192° South 420 483 45,000  Level Miami Center
Tue 12:11:27 PM 25.4556 -80.9297 192° South 425 489 45,000  Level Miami Center
Tue 12:12:27 PM 25.3400 -80.9556 191° South 425 489 45,000  Level Miami Center
Tue 12:13:27 PM 25.2244 -80.9817 192° South 425 489 45,000  Level Miami Center
Tue 12:14:27 PM 25.1089 -81.0075 191° South 425 489 45,000  Level Miami Center
Tue 12:15:27 PM 24.9933 -81.0336 192° South 430 495 45,000  Level Miami Center
Tue 12:16:27 PM 24.8817 -81.0639 194° South 430 495 45,000  Level Miami Center
Tue 12:17:27 PM 24.7639 -81.0875 190° South 430 495 45,000  Level Miami Center
Tue 12:18:27 PM 24.6464 -81.1064 188° South 430 495 45,000  Level Miami Center
Tue 12:19:27 PM 24.5331 -81.1253 189° South 430 495 45,000  Level Miami Center
Tue 12:20:27 PM 24.4158 -81.1417 187° South 430 495 45,000  Level Miami Center
Tue 12:21:27 PM 24.2981 -81.1628 189° South 430 495 45,000  Level Miami Center
Tue 12:22:27 PM 24.1847 -81.1861 191° South 430 495 45,000  Level Miami Center
Tue 12:23:27 PM 24.0672 -81.2028 187° South 430 495 45,000  Level Miami Center
Tue 12:25:00 PM 23.9003 -81.2405 192° South  Level FlightAware Approximate
Tue 12:32:00 PM 23.1425 -81.4203 192° South  Level FlightAware Approximate
Tue 12:33:00 PM 23.0342 -81.4459 192° South  Level FlightAware Approximate
Tue 12:34:00 PM 22.9277 -81.4786 196° South  Level FlightAware Approximate
Tue 12:35:00 PM 22.8214 -81.5126 196° South  Level FlightAware Approximate
Tue 12:36:00 PM 22.7151 -81.5466 196° South  Level FlightAware Approximate
Tue 12:37:00 PM 22.6089 -81.5805 196° South  Level FlightAware Approximate
Tue 12:38:00 PM 22.5027 -81.6146 197° South  Level FlightAware Approximate
Tue 12:39:00 PM 22.3965 -81.6488 197° South  Level FlightAware Approximate
Tue 12:40:00 PM 22.2902 -81.6828 197° South  Level FlightAware Approximate
Tue 12:41:00 PM 22.1840 -81.7169 197° South  Level FlightAware Approximate
Tue 12:42:00 PM 22.0778 -81.7508 197° South  Level FlightAware Approximate
Tue 12:43:00 PM 21.9716 -81.7847 196° South  Level FlightAware Approximate
Tue 12:44:00 PM 21.8653 -81.8186 196° South  Level FlightAware Approximate
Tue 12:45:00 PM 21.7591 -81.8526 198° South  Level FlightAware Approximate
Tue 12:46:00 PM 21.6536 -81.8888 198° South  Level FlightAware Approximate
Tue 12:47:00 PM 21.5480 -81.9250 198° South  Level FlightAware Approximate
Tue 12:48:00 PM 21.4424 -81.9612 198° South  Level FlightAware Approximate
Tue 12:49:00 PM 21.3369 -81.9973 198° South  Level FlightAware Approximate
Tue 12:50:00 PM 21.2313 -82.0333 198° South  Level FlightAware Approximate
Tue 12:51:00 PM 21.1257 -82.0692 197° South  Level FlightAware Approximate
Tue 12:52:00 PM 21.0197 -82.1036 197° South  Level FlightAware Approximate
Tue 12:53:00 PM 20.9136 -82.1379 197° South  Level FlightAware Approximate
Tue 12:54:00 PM 20.8076 -82.1723 197° South  Level FlightAware Approximate
Tue 12:55:00 PM 20.7015 -82.2065 197° South  Level FlightAware Approximate
Tue 12:56:00 PM 20.5955 -82.2408 197° South  Level FlightAware Approximate
Tue 12:57:00 PM 20.4894 -82.2749 197° South  Level FlightAware Approximate
Tue 12:58:00 PM 20.3833 -82.3091 197° South  Level FlightAware Approximate
Tue 12:59:00 PM 20.2773 -82.3431 197° South  Level FlightAware Approximate
Tue 01:00:00 PM 20.1712 -82.3772 197° South  Level FlightAware Approximate
Tue 01:01:00 PM 20.0639 -82.4017 210° Southwest  Level FlightAware Approximate
Tue 01:02:00 PM 19.9678 -82.4602 210° Southwest  Level FlightAware Approximate
Tue 01:03:00 PM 19.8716 -82.5187 210° Southwest  Level FlightAware Approximate
Tue 01:04:00 PM 19.7754 -82.5771 210° Southwest  Level FlightAware Approximate
Tue 01:05:00 PM 19.6792 -82.6354 210° Southwest  Level FlightAware Approximate
Tue 01:06:00 PM 19.5827 -82.6932 208° Southwest  Level FlightAware Approximate
Tue 01:07:00 PM 19.4851 -82.7489 208° Southwest  Level FlightAware Approximate
Tue 01:08:00 PM 19.3875 -82.8045 208° Southwest  Level FlightAware Approximate
Tue 01:09:00 PM 19.2899 -82.8600 208° Southwest  Level FlightAware Approximate
Tue 01:10:00 PM 19.1923 -82.9155 208° Southwest  Level FlightAware Approximate
Tue 01:11:00 PM 19.0946 -82.9709 208° Southwest  Level FlightAware Approximate
Tue 01:12:00 PM 18.9970 -83.0263 208° Southwest  Level FlightAware Approximate
Tue 01:13:00 PM 18.8993 -83.0816 208° Southwest  Level FlightAware Approximate
Tue 01:14:00 PM 18.8021 -83.1378 209° Southwest  Level FlightAware Approximate
Tue 01:15:00 PM 18.7052 -83.1944 209° Southwest  Level FlightAware Approximate
Tue 01:16:00 PM 18.6082 -83.2510 209° Southwest  Level FlightAware Approximate
Tue 01:17:00 PM 18.5112 -83.3075 209° Southwest  Level FlightAware Approximate
Tue 01:18:00 PM 18.4143 -83.3640 209° Southwest  Level FlightAware Approximate
Tue 01:19:00 PM 18.3172 -83.4203 209° Southwest  Level FlightAware Approximate
Tue 01:20:00 PM 18.2202 -83.4767 209° Southwest  Level FlightAware Approximate
Tue 01:21:00 PM 18.1232 -83.5329 209° Southwest  Level FlightAware Approximate
Tue 01:22:00 PM 18.0261 -83.5891 209° Southwest  Level FlightAware Approximate
Tue 01:23:00 PM 17.9291 -83.6453 209° Southwest  Level FlightAware Approximate
Tue 01:24:00 PM 17.8320 -83.7013 209° Southwest  Level FlightAware Approximate
Tue 01:25:00 PM 17.7349 -83.7574 209° Southwest  Level FlightAware Approximate
Tue 01:26:00 PM 17.6378 -83.8133 209° Southwest  Level FlightAware Approximate
Tue 01:27:00 PM 17.5406 -83.8692 209° Southwest  Level FlightAware Approximate
Tue 01:28:00 PM 17.4435 -83.9250 209° Southwest  Level FlightAware Approximate
Tue 01:29:00 PM 17.3433 -83.9741 202° Southwest  Level FlightAware Approximate
Tue 01:30:00 PM 17.2406 -84.0176 202° Southwest  Level FlightAware Approximate
Tue 01:31:00 PM 17.1379 -84.0611 202° Southwest  Level FlightAware Approximate
Tue 01:32:00 PM 17.0352 -84.1046 202° Southwest  Level FlightAware Approximate
Tue 01:33:00 PM 16.9324 -84.1479 202° Southwest  Level FlightAware Approximate
Tue 01:34:00 PM 16.8297 -84.1913 202° Southwest  Level FlightAware Approximate
Tue 01:35:00 PM 16.7270 -84.2346 202° Southwest  Level FlightAware Approximate
Tue 01:36:00 PM 16.6242 -84.2778 202° Southwest  Level FlightAware Approximate
Tue 01:37:00 PM 16.5215 -84.3210 202° Southwest  Level FlightAware Approximate
Tue 01:38:00 PM 16.4187 -84.3642 202° Southwest  Level FlightAware Approximate
Tue 01:39:00 PM 16.3159 -84.4073 202° Southwest  Level FlightAware Approximate
Tue 01:40:00 PM 16.2132 -84.4505 202° Southwest  Level FlightAware Approximate
Tue 01:41:00 PM 16.1104 -84.4936 202° Southwest  Level FlightAware Approximate
Tue 01:42:00 PM 16.0076 -84.5366 202° Southwest  Level FlightAware Approximate
Tue 01:43:00 PM 15.9048 -84.5797 202° Southwest  Level FlightAware Approximate
Tue 01:44:00 PM 15.8020 -84.6226 202° Southwest  Level FlightAware Approximate
Tue 01:45:00 PM 15.6993 -84.6656 202° Southwest  Level FlightAware Approximate
Tue 01:46:00 PM 15.5965 -84.7087 203° Southwest  Level FlightAware Approximate
Tue 01:47:00 PM 15.4942 -84.7527 202° Southwest  Level FlightAware Approximate
Tue 01:48:00 PM 15.3918 -84.7966 202° Southwest  Level FlightAware Approximate
Tue 01:49:00 PM 15.2894 -84.8405 202° Southwest  Level FlightAware Approximate
Tue 01:50:00 PM 15.1870 -84.8844 202° Southwest  Level FlightAware Approximate
Tue 01:51:00 PM 15.0846 -84.9282 202° Southwest  Level FlightAware Approximate
Tue 01:52:00 PM 14.9822 -84.9720 202° Southwest  Level FlightAware Approximate
Tue 01:53:00 PM 14.8799 -85.0158 203° Southwest  Level FlightAware Approximate
Tue 01:54:00 PM 14.7774 -85.0594 202° Southwest  Level FlightAware Approximate
Tue 01:55:00 PM 14.6746 -85.1020 202° Southwest  Level FlightAware Approximate
Tue 01:56:00 PM 14.5717 -85.1445 202° Southwest  Level FlightAware Approximate
Tue 01:57:00 PM 14.4688 -85.1871 202° Southwest  Level FlightAware Approximate
Tue 01:58:00 PM 14.3660 -85.2296 202° Southwest  Level FlightAware Approximate
Tue 01:59:00 PM 14.2631 -85.2720 202° Southwest  Level FlightAware Approximate
Tue 02:00:00 PM 14.1602 -85.3144 202° Southwest  Level FlightAware Approximate
Tue 02:01:00 PM 14.0573 -85.3568 202° Southwest  Level FlightAware Approximate
Tue 02:02:00 PM 13.9546 -85.3995 202° Southwest  Level FlightAware Approximate
Tue 02:03:00 PM 13.8519 -85.4422 202° Southwest  Level FlightAware Approximate
Tue 02:04:00 PM 13.7491 -85.4849 202° Southwest  Level FlightAware Approximate
Tue 02:05:00 PM 13.6464 -85.5276 202° Southwest  Level FlightAware Approximate
Tue 02:06:00 PM 13.5437 -85.5703 202° Southwest  Level FlightAware Approximate
Tue 02:07:00 PM 13.4409 -85.6129 202° Southwest  Level FlightAware Approximate
Tue 02:08:00 PM 13.3382 -85.6555 202° Southwest  Level FlightAware Approximate
Tue 02:09:00 PM 13.2354 -85.6980 202° Southwest  Level FlightAware Approximate
Tue 02:10:00 PM 13.1332 -85.7418 206° Southwest  Level FlightAware Approximate
Tue 02:11:00 PM 13.0328 -85.7898 200° South  Level FlightAware Approximate
Tue 02:12:00 PM 12.9288 -85.8288 200° South  Level FlightAware Approximate
Tue 02:13:00 PM 12.8287 -85.8773 206° Southwest  Level FlightAware Approximate
Tue 02:14:00 PM 12.7281 -85.9247 200° South  Level FlightAware Approximate
Tue 02:15:00 PM 12.6236 -85.9626 200° South  Level FlightAware Approximate
Tue 02:16:00 PM 12.5200 -86.0026 202° Southwest  Level FlightAware Approximate
Tue 02:17:00 PM 12.4172 -86.0449 202° Southwest  Level FlightAware Approximate
Tue 02:18:00 PM 12.3144 -86.0872 202° Southwest  Level FlightAware Approximate
Tue 02:19:00 PM 12.2138 -86.1345 201° Southwest  Level FlightAware Approximate
Tue 02:20:00 PM 12.1101 -86.1589 162° South  Level FlightAware Approximate
Tue 02:21:00 PM 12.0048 -86.1238 162° South  Level FlightAware Approximate
Tue 02:22:00 PM 11.9031 -86.0792 155° Southeast  Level FlightAware Approximate
Tue 02:23:00 PM 11.8023 -86.0322 155° Southeast  Level FlightAware Approximate
Tue 02:24:00 PM 11.7010 -85.9865 158° South  Level FlightAware Approximate
Tue 02:25:00 PM 11.5984 -85.9437 158° South  Level FlightAware Approximate
Tue 02:26:00 PM 11.4958 -85.9010 158° South  Level FlightAware Approximate
Tue 02:27:00 PM 11.3933 -85.8583 158° South  Level FlightAware Approximate
Tue 02:28:00 PM 11.2901 -85.8171 160° South  Level FlightAware Approximate
Tue 02:29:00 PM 11.1852 -85.7833 180° South  Level FlightAware Approximate
Tue 02:30:00 PM 11.0813 -85.7477 158° South  Level FlightAware Approximate
Tue 02:31:00 PM 10.9787 -85.7050 158° South  Level FlightAware Approximate
Tue 02:32:00 PM 10.8771 -85.6602 156° South  Level FlightAware Approximate
Tue 02:33:00 PM 10.7760 -85.6142 162° South  Level FlightAware Approximate
Tue 02:34:00 PM 10.6742 -85.5704 154° Southeast  Level FlightAware Approximate
Tue 02:35:00 PM 10.5933 -85.5444 159° South  Level Estimated
Tue 02:36:00 PM 10.5933 -85.5444 159° South  Level Estimated
Tue 02:37:00 PM 10.5933 -85.5444 159° South  Level Estimated
Tue 02:38:00 PM 10.5933 -85.5444 159° South  Level Estimated
Tue 02:39:00 PM 10.5933 -85.5444 159° South  Level Estimated
Tue 02:40:00 PM 10.5933 -85.5444 159° South  Level Estimated
Tue 02:41:00 PM 10.5933 -85.5444 159° South  Level Estimated
Tue 02:42:00 PM 10.5933 -85.5444 159° South  Level Estimated
Tue 02:43:00 PM 10.5933 -85.5444 159° South  Level Estimated
Tue 02:44:00 PM 10.5933 -85.5444 159° South  Level Estimated
Tue 02:45:00 PM 10.5933 -85.5444 159° South  Level Estimated
Tue 02:46:00 PM 10.5933 -85.5444 159° South  Level Estimated
Tue 02:47:00 PM 10.5933 -85.5444 159° South  Level Estimated
Tue 02:48:00 PM 10.5933 -85.5444 159° South  Level Estimated

Login

Don't have an account? Register now (free) for customized features, flight alerts, and more!